createdAt,value
2022-12-18T00:02:04.764Z,-7.90
2022-12-18T00:04:31.659Z,-8.00
2022-12-18T00:06:58.499Z,-8.00
2022-12-18T00:09:25.175Z,-8.00
2022-12-18T00:11:58.130Z,-8.00
2022-12-18T00:14:24.833Z,-8.10
2022-12-18T00:16:51.473Z,-8.10
2022-12-18T00:19:18.405Z,-8.00
2022-12-18T00:21:45.287Z,-8.10
2022-12-18T00:24:12.323Z,-8.10
2022-12-18T00:26:39.616Z,-8.20
2022-12-18T00:29:12.184Z,-8.30
2022-12-18T00:31:39.005Z,-8.40
2022-12-18T00:34:05.856Z,-8.50
2022-12-18T00:36:34.369Z,-8.60
2022-12-18T00:39:02.011Z,-8.60
2022-12-18T00:41:47.729Z,-8.60
2022-12-18T00:44:15.361Z,-8.70
2022-12-18T00:46:42.504Z,-8.70
2022-12-18T00:49:09.329Z,-8.70
2022-12-18T00:51:35.994Z,-8.80
2022-12-18T00:54:02.715Z,-8.80
2022-12-18T00:56:29.389Z,-8.80
2022-12-18T00:58:56.096Z,-8.80
2022-12-18T01:01:23.018Z,-8.80
2022-12-18T01:03:49.846Z,-8.90
2022-12-18T01:06:16.861Z,-9.00
2022-12-18T01:08:43.662Z,-9.00
2022-12-18T01:11:17.538Z,-9.00
2022-12-18T01:13:44.300Z,-9.00
2022-12-18T01:16:15.162Z,-8.90
2022-12-18T01:18:41.914Z,-8.90
2022-12-18T01:21:09.582Z,-8.90
2022-12-18T01:23:38.166Z,-8.90
2022-12-18T01:26:09.234Z,-8.90
2022-12-18T01:28:36.188Z,-8.90
2022-12-18T01:31:23.287Z,-8.90
2022-12-18T01:33:50.650Z,-9.00
2022-12-18T01:36:37.591Z,-9.00
2022-12-18T01:39:08.068Z,-9.00
2022-12-18T01:41:53.794Z,-9.00
2022-12-18T01:44:39.445Z,-8.90
2022-12-18T01:47:06.265Z,-8.90
2022-12-18T01:49:32.948Z,-9.00
2022-12-18T01:51:59.664Z,-9.00
2022-12-18T01:54:26.366Z,-9.00
2022-12-18T01:56:53.114Z,-8.90
2022-12-18T01:59:19.798Z,-9.00
2022-12-18T02:01:46.567Z,-9.00
2022-12-18T02:04:39.051Z,-9.00
2022-12-18T02:07:15.942Z,-9.00
2022-12-18T02:09:57.972Z,-9.00
2022-12-18T02:12:26.013Z,-9.10
2022-12-18T02:15:01.046Z,-9.20
2022-12-18T02:17:39.175Z,-9.40
2022-12-18T02:20:12.113Z,-9.60
2022-12-18T02:22:44.799Z,-9.80
2022-12-18T02:25:30.797Z,-9.90
2022-12-18T02:28:00.344Z,-10.00
2022-12-18T02:30:30.097Z,-10.10
2022-12-18T02:32:57.855Z,-10.30
2022-12-18T02:35:25.958Z,-10.40
2022-12-18T02:37:55.354Z,-10.50
2022-12-18T02:40:23.046Z,-10.60
2022-12-18T02:42:50.503Z,-10.70
2022-12-18T02:45:19.034Z,-10.80
2022-12-18T02:47:48.444Z,-10.80
2022-12-18T02:50:44.704Z,-10.90
2022-12-18T02:53:17.015Z,-10.90
2022-12-18T02:56:02.998Z,-11.00
2022-12-18T02:58:29.654Z,-11.00
2022-12-18T03:01:05.315Z,-11.00
2022-12-18T03:03:39.381Z,-11.00
2022-12-18T03:06:08.695Z,-11.00
2022-12-18T03:08:38.376Z,-11.00
2022-12-18T03:11:06.986Z,-11.00
2022-12-18T03:13:49.139Z,-11.00
2022-12-18T03:16:22.199Z,-11.00
2022-12-18T03:18:52.664Z,-11.00
2022-12-18T03:21:23.215Z,-11.00
2022-12-18T03:23:53.405Z,-11.00
2022-12-18T03:26:25.649Z,-11.00
2022-12-18T03:28:59.335Z,-11.00
2022-12-18T03:31:28.652Z,-11.00
2022-12-18T03:33:58.034Z,-11.00
2022-12-18T03:36:32.123Z,-11.00
2022-12-18T03:38:58.862Z,-11.00
2022-12-18T03:41:35.484Z,-10.90
2022-12-18T03:44:40.220Z,-11.00
2022-12-18T03:47:10.551Z,-11.00
2022-12-18T03:49:47.270Z,-11.00
2022-12-18T03:52:19.419Z,-11.00
2022-12-18T03:54:46.516Z,-10.90
2022-12-18T03:57:21.715Z,-10.80
2022-12-18T03:59:52.963Z,-10.80
2022-12-18T04:02:23.600Z,-10.70
2022-12-18T04:04:52.887Z,-10.70
2022-12-18T04:07:20.558Z,-10.80
2022-12-18T04:09:49.228Z,-10.80
2022-12-18T04:12:16.007Z,-10.80
2022-12-18T04:14:43.872Z,-10.80
2022-12-18T04:17:11.048Z,-10.80
2022-12-18T04:19:37.717Z,-10.80
2022-12-18T04:22:04.512Z,-10.90
2022-12-18T04:24:38.292Z,-10.90
2022-12-18T04:27:13.507Z,-10.90
2022-12-18T04:29:44.304Z,-11.00
2022-12-18T04:32:11.467Z,-11.00
2022-12-18T04:34:39.362Z,-11.10
2022-12-18T04:37:06.150Z,-11.00
2022-12-18T04:39:33.204Z,-11.00
2022-12-18T04:42:06.207Z,-10.90
2022-12-18T04:44:34.440Z,-10.80
2022-12-18T04:47:01.170Z,-10.70
2022-12-18T04:49:27.879Z,-10.70
2022-12-18T04:51:54.579Z,-10.70
2022-12-18T04:54:21.943Z,-10.70
2022-12-18T04:56:48.598Z,-10.80
2022-12-18T04:59:15.302Z,-10.80
2022-12-18T05:01:42.068Z,-10.90
2022-12-18T05:04:09.059Z,-10.90
2022-12-18T05:06:35.830Z,-10.90
2022-12-18T05:09:02.487Z,-10.90
2022-12-18T05:11:29.228Z,-10.90
2022-12-18T05:13:55.862Z,-10.90
2022-12-18T05:16:22.685Z,-10.90
2022-12-18T05:18:49.506Z,-10.90
2022-12-18T05:21:16.147Z,-10.90
2022-12-18T05:23:43.370Z,-11.00
2022-12-18T05:26:18.230Z,-11.00
2022-12-18T05:28:45.369Z,-11.00
2022-12-18T05:31:12.253Z,-11.10
2022-12-18T05:33:39.520Z,-11.30
2022-12-18T05:36:07.715Z,-11.40
2022-12-18T05:38:35.519Z,-11.50
2022-12-18T05:41:02.614Z,-11.50
2022-12-18T05:43:29.745Z,-11.60
2022-12-18T05:45:57.770Z,-11.70
2022-12-18T05:48:24.477Z,-11.80
2022-12-18T05:50:51.850Z,-11.90
2022-12-18T05:53:20.213Z,-12.00
2022-12-18T05:55:47.234Z,-12.00
2022-12-18T05:58:14.347Z,-12.00
2022-12-18T06:00:44.921Z,-12.10
2022-12-18T06:03:12.928Z,-12.10
2022-12-18T06:05:40.698Z,-12.10
2022-12-18T06:08:07.673Z,-12.20
2022-12-18T06:10:34.504Z,-12.20
2022-12-18T06:13:01.741Z,-12.30
2022-12-18T06:15:28.416Z,-12.30
2022-12-18T06:17:55.261Z,-12.30
2022-12-18T06:20:22.125Z,-12.30
2022-12-18T06:22:48.868Z,-12.30
2022-12-18T06:25:16.611Z,-12.30
2022-12-18T06:27:43.383Z,-12.20
2022-12-18T06:30:11.008Z,-12.20
2022-12-18T06:32:37.789Z,-12.20
2022-12-18T06:35:04.913Z,-12.10
2022-12-18T06:37:31.926Z,-12.10
2022-12-18T06:39:58.589Z,-12.00
2022-12-18T06:42:25.661Z,-12.00
2022-12-18T06:44:52.313Z,-12.00
2022-12-18T06:47:19.214Z,-11.90
2022-12-18T06:49:45.831Z,-11.90
2022-12-18T06:52:12.476Z,-11.90
2022-12-18T06:54:39.292Z,-11.90
2022-12-18T06:57:05.965Z,-11.80
2022-12-18T06:59:32.710Z,-11.80
2022-12-18T07:01:59.526Z,-11.80
2022-12-18T07:04:30.475Z,-11.80
2022-12-18T07:06:57.198Z,-11.80
2022-12-18T07:09:24.207Z,-11.80
2022-12-18T07:11:51.390Z,-11.80
2022-12-18T07:14:18.054Z,-11.80
2022-12-18T07:16:44.790Z,-11.70
2022-12-18T07:19:11.493Z,-11.70
2022-12-18T07:21:38.161Z,-11.70
2022-12-18T07:24:05.296Z,-11.70
2022-12-18T07:26:32.058Z,-11.60
2022-12-18T07:28:58.891Z,-11.60
2022-12-18T07:31:25.970Z,-11.70
2022-12-18T07:33:52.987Z,-11.60
2022-12-18T07:36:19.812Z,-11.70
2022-12-18T07:38:50.089Z,-11.60
2022-12-18T07:41:17.017Z,-11.60
2022-12-18T07:43:44.176Z,-11.50
2022-12-18T07:46:13.540Z,-11.40
2022-12-18T07:48:41.340Z,-11.40
2022-12-18T07:51:08.290Z,-11.30
2022-12-18T07:53:35.662Z,-11.20
2022-12-18T07:56:31.843Z,-11.10
2022-12-18T07:58:50.880Z,-11.10
2022-12-18T08:01:18.025Z,-11.00
2022-12-18T08:03:45.345Z,-11.00
2022-12-18T08:06:11.994Z,-11.00
2022-12-18T08:08:38.792Z,-11.00
2022-12-18T08:11:05.548Z,-11.00
2022-12-18T08:13:32.209Z,-10.90
2022-12-18T08:16:08.384Z,-10.90
2022-12-18T08:18:36.250Z,-10.80
2022-12-18T08:21:29.465Z,-10.70
2022-12-18T08:23:57.491Z,-10.60
2022-12-18T08:26:24.895Z,-10.50
2022-12-18T08:28:52.004Z,-10.40
2022-12-18T08:31:19.250Z,-10.00
2022-12-18T08:33:46.193Z,-8.60
2022-12-18T08:36:13.780Z,-6.70
2022-12-18T08:38:40.988Z,-4.80
2022-12-18T08:41:10.258Z,-2.80
2022-12-18T08:43:55.588Z,-1.10
2022-12-18T08:46:23.352Z,0.30
2022-12-18T08:48:51.857Z,1.80
2022-12-18T08:51:19.029Z,2.90
2022-12-18T08:53:46.180Z,4.20
2022-12-18T08:56:13.314Z,5.20
2022-12-18T08:58:40.424Z,5.80
2022-12-18T09:01:08.295Z,6.60
2022-12-18T09:03:35.065Z,7.50
2022-12-18T09:06:01.793Z,7.90
2022-12-18T09:08:28.727Z,8.10
2022-12-18T09:10:56.209Z,8.60
2022-12-18T09:13:22.884Z,9.20
2022-12-18T09:15:50.920Z,9.80
2022-12-18T09:18:18.249Z,10.40
2022-12-18T09:20:45.146Z,10.60
2022-12-18T09:23:12.055Z,10.90
2022-12-18T09:25:39.116Z,11.70
2022-12-18T09:28:15.453Z,12.60
2022-12-18T09:30:43.727Z,13.30
2022-12-18T09:33:10.542Z,13.90
2022-12-18T09:35:37.691Z,14.10
2022-12-18T09:38:04.708Z,13.90
2022-12-18T09:40:35.258Z,13.80
2022-12-18T09:43:04.457Z,13.70
2022-12-18T09:45:39.834Z,13.40
2022-12-18T09:48:08.088Z,13.00
2022-12-18T09:50:36.830Z,12.60
2022-12-18T09:53:07.443Z,12.30
2022-12-18T09:55:37.984Z,12.40
2022-12-18T09:58:13.089Z,12.50
2022-12-18T10:00:39.941Z,12.60
2022-12-18T10:03:16.346Z,12.60
2022-12-18T10:05:46.596Z,12.70
2022-12-18T10:08:17.203Z,12.90
2022-12-18T10:10:55.652Z,13.10
2022-12-18T10:13:26.983Z,13.00
2022-12-18T10:15:57.148Z,12.60
2022-12-18T10:18:26.924Z,12.30
2022-12-18T10:20:55.109Z,11.40
2022-12-18T10:23:25.314Z,9.90
2022-12-18T10:26:00.582Z,8.10
2022-12-18T10:28:27.950Z,6.20
2022-12-18T10:30:54.720Z,4.40
2022-12-18T10:33:22.873Z,2.80
2022-12-18T10:35:51.200Z,1.60
2022-12-18T10:38:17.952Z,0.40
2022-12-18T10:40:50.731Z,-0.50
2022-12-18T10:43:21.263Z,-1.30
2022-12-18T10:46:06.760Z,-1.90
2022-12-18T10:48:35.361Z,-2.30
2022-12-18T10:51:10.828Z,-2.60
2022-12-18T10:53:41.075Z,-2.80
2022-12-18T10:56:08.000Z,-3.10
2022-12-18T10:58:35.987Z,-3.30
2022-12-18T11:01:04.268Z,-3.40
2022-12-18T11:03:39.368Z,-3.60
2022-12-18T11:06:06.143Z,-3.70
2022-12-18T11:08:32.980Z,-3.80
2022-12-18T11:11:01.609Z,-3.80
2022-12-18T11:13:29.702Z,-3.80
2022-12-18T11:15:56.545Z,-3.70
2022-12-18T11:18:28.831Z,-3.60
2022-12-18T11:20:58.983Z,-3.40
2022-12-18T11:23:26.427Z,-3.40
2022-12-18T11:25:57.764Z,-3.30
2022-12-18T11:28:30.169Z,-3.30
2022-12-18T11:31:13.708Z,-3.20
2022-12-18T11:33:58.486Z,-3.20
2022-12-18T11:36:31.765Z,-3.20
2022-12-18T11:39:00.398Z,-3.10
2022-12-18T11:41:49.504Z,-3.00
2022-12-18T11:44:20.843Z,-2.90
2022-12-18T11:46:50.255Z,-2.90
2022-12-18T11:49:26.598Z,-2.90
2022-12-18T11:51:56.567Z,-2.90
2022-12-18T11:54:23.288Z,-3.00
2022-12-18T11:56:51.950Z,-3.00
2022-12-18T11:59:28.763Z,-3.00
2022-12-18T12:02:01.167Z,-3.00
2022-12-18T12:04:40.472Z,-3.00
2022-12-18T12:07:10.372Z,-3.00
2022-12-18T12:09:56.391Z,-3.00
2022-12-18T12:12:48.690Z,-3.00
2022-12-18T12:15:21.913Z,-3.00
2022-12-18T12:17:53.705Z,-3.10
2022-12-18T12:20:37.129Z,-3.10
2022-12-18T12:23:03.738Z,-3.10
2022-12-18T12:25:47.434Z,-3.10
2022-12-18T12:28:29.221Z,-2.90
2022-12-18T12:31:16.217Z,-2.70
2022-12-18T12:34:00.982Z,-2.70
2022-12-18T12:36:27.636Z,-2.60
2022-12-18T12:38:58.910Z,-2.60
2022-12-18T12:41:45.700Z,-2.60
2022-12-18T12:44:17.590Z,-2.70
2022-12-18T12:46:44.730Z,-2.80
2022-12-18T12:49:19.310Z,-2.90
2022-12-18T12:51:50.268Z,-3.00
2022-12-18T12:54:19.950Z,-3.20
2022-12-18T12:56:52.881Z,-3.30
2022-12-18T12:59:19.587Z,-3.50
2022-12-18T13:02:00.342Z,-3.60
2022-12-18T13:04:45.626Z,-3.80
2022-12-18T13:07:31.874Z,-3.90
2022-12-18T13:10:17.337Z,-3.90
2022-12-18T13:13:09.058Z,-4.00
2022-12-18T13:15:40.213Z,-4.10
2022-12-18T13:18:07.137Z,-4.20
2022-12-18T13:20:35.399Z,-4.30
2022-12-18T13:23:02.157Z,-4.40
2022-12-18T13:25:29.154Z,-4.40
2022-12-18T13:28:00.556Z,-4.60
2022-12-18T13:30:33.810Z,-4.70
2022-12-18T13:33:16.308Z,-4.80
2022-12-18T13:35:52.225Z,-4.90
2022-12-18T13:38:39.887Z,-5.00
2022-12-18T13:41:15.888Z,-5.00
2022-12-18T13:43:48.268Z,-5.10
2022-12-18T13:46:18.394Z,-5.10
2022-12-18T13:48:50.919Z,-5.10
2022-12-18T13:51:19.888Z,-5.20
2022-12-18T13:53:55.542Z,-5.20
2022-12-18T13:56:23.922Z,-5.20
2022-12-18T13:59:10.208Z,-5.30
2022-12-18T14:01:37.547Z,-5.30
2022-12-18T14:04:25.295Z,-5.30
2022-12-18T14:07:12.188Z,-5.30
2022-12-18T14:09:41.899Z,-5.40
2022-12-18T14:12:34.212Z,-5.40
2022-12-18T14:15:01.726Z,-5.40
2022-12-18T14:17:28.524Z,-5.50
2022-12-18T14:19:56.525Z,-5.60
2022-12-18T14:22:30.315Z,-5.60
2022-12-18T14:25:14.285Z,-5.60
2022-12-18T14:27:45.743Z,-5.60
2022-12-18T14:30:32.791Z,-5.60
2022-12-18T14:33:03.543Z,-5.70
2022-12-18T14:35:30.458Z,-5.70
2022-12-18T14:38:15.703Z,-5.70
2022-12-18T14:40:42.976Z,-5.80
2022-12-18T14:43:12.695Z,-5.80
2022-12-18T14:45:45.267Z,-5.90
2022-12-18T14:48:19.683Z,-5.90
2022-12-18T14:51:17.634Z,-5.90
2022-12-18T14:53:52.055Z,-6.00
2022-12-18T14:56:27.218Z,-6.00
2022-12-18T14:59:04.695Z,-6.00
2022-12-18T15:01:34.025Z,-6.00
2022-12-18T15:04:01.829Z,-6.10
2022-12-18T15:06:31.223Z,-6.20
2022-12-18T15:08:58.609Z,-6.20
2022-12-18T15:11:40.657Z,-6.20
2022-12-18T15:14:23.576Z,-6.30
2022-12-18T15:16:51.448Z,-6.30
2022-12-18T15:19:18.498Z,-6.40
2022-12-18T15:21:45.523Z,-6.40
2022-12-18T15:24:19.731Z,-6.50
2022-12-18T15:26:46.377Z,-6.50
2022-12-18T15:29:19.690Z,-6.50
2022-12-18T15:31:58.467Z,-6.60
2022-12-18T15:34:26.170Z,-6.60
2022-12-18T15:36:52.980Z,-6.70
2022-12-18T15:39:19.869Z,-6.70
2022-12-18T15:42:18.872Z,-6.80
2022-12-18T15:44:45.902Z,-6.80
2022-12-18T15:47:13.148Z,-6.80
2022-12-18T15:49:40.205Z,-6.90
2022-12-18T15:52:07.342Z,-6.90
2022-12-18T15:54:52.616Z,-6.90
2022-12-18T15:57:25.148Z,-6.90
2022-12-18T15:59:53.611Z,-6.90
2022-12-18T16:02:21.378Z,-6.90
2022-12-18T16:04:48.194Z,-6.90
2022-12-18T16:07:22.863Z,-6.90
2022-12-18T16:09:51.834Z,-6.90
2022-12-18T16:12:20.338Z,-6.90
2022-12-18T16:14:47.050Z,-6.90
2022-12-18T16:17:15.282Z,-6.90
2022-12-18T16:19:45.311Z,-6.80
2022-12-18T16:22:26.073Z,-6.90
2022-12-18T16:24:53.790Z,-6.80
2022-12-18T16:27:21.343Z,-6.90
2022-12-18T16:29:48.043Z,-6.90
2022-12-18T16:32:16.245Z,-6.80
2022-12-18T16:34:43.216Z,-6.80
2022-12-18T16:37:10.967Z,-6.80
2022-12-18T16:39:38.301Z,-6.80
2022-12-18T16:42:23.059Z,-6.80
2022-12-18T16:44:50.092Z,-6.80
2022-12-18T16:47:17.058Z,-6.80
2022-12-18T16:49:45.919Z,-6.80
2022-12-18T16:52:13.333Z,-6.70
2022-12-18T16:54:40.007Z,-6.70
2022-12-18T16:57:06.720Z,-6.70
2022-12-18T16:59:33.839Z,-6.70
2022-12-18T17:02:00.953Z,-6.60
2022-12-18T17:04:27.778Z,-6.60
2022-12-18T17:06:54.491Z,-6.50
2022-12-18T17:09:25.467Z,-6.50
2022-12-18T17:11:53.196Z,-6.40
2022-12-18T17:14:21.097Z,-6.40
2022-12-18T17:16:49.178Z,-6.30
2022-12-18T17:19:21.859Z,-6.30
2022-12-18T17:21:49.783Z,-6.30
2022-12-18T17:24:16.688Z,-6.20
2022-12-18T17:26:44.148Z,-6.20
2022-12-18T17:29:14.965Z,-6.20
2022-12-18T17:31:41.718Z,-6.10
2022-12-18T17:34:09.660Z,-6.20
2022-12-18T17:36:36.572Z,-6.10
2022-12-18T17:39:03.948Z,-6.10
2022-12-18T17:41:30.672Z,-6.10
2022-12-18T17:43:58.816Z,-6.10
2022-12-18T17:46:25.996Z,-6.10
2022-12-18T17:48:54.946Z,-6.00
2022-12-18T17:51:21.602Z,-6.00
2022-12-18T17:53:48.395Z,-6.00
2022-12-18T17:56:16.131Z,-5.90
2022-12-18T17:58:44.094Z,-5.90
2022-12-18T18:01:16.100Z,-5.80
2022-12-18T18:03:43.740Z,-5.80
2022-12-18T18:06:11.616Z,-5.80
2022-12-18T18:08:38.683Z,-5.80
2022-12-18T18:11:25.274Z,-5.80
2022-12-18T18:14:01.098Z,-5.70
2022-12-18T18:16:28.290Z,-5.70
2022-12-18T18:18:56.818Z,-5.70
2022-12-18T18:21:23.473Z,-5.60
2022-12-18T18:23:52.616Z,-5.50
2022-12-18T18:26:21.055Z,-5.60
2022-12-18T18:28:47.794Z,-5.50
2022-12-18T18:31:14.691Z,-5.50
2022-12-18T18:33:41.929Z,-5.50
2022-12-18T18:36:09.797Z,-5.40
2022-12-18T18:38:36.513Z,-5.40
2022-12-18T18:41:04.437Z,-5.40
2022-12-18T18:43:31.540Z,-5.30
2022-12-18T18:45:59.148Z,-5.30
2022-12-18T18:48:26.568Z,-5.20
2022-12-18T18:50:59.889Z,-5.10
2022-12-18T18:53:26.674Z,-5.00
2022-12-18T18:56:26.130Z,-5.00
2022-12-18T18:58:40.033Z,-4.90
2022-12-18T19:01:14.505Z,-4.90
2022-12-18T19:03:41.987Z,-4.80
2022-12-18T19:06:11.207Z,-4.80
2022-12-18T19:08:38.889Z,-4.80
2022-12-18T19:11:28.805Z,-4.80
2022-12-18T19:14:00.508Z,-4.80
2022-12-18T19:16:27.710Z,-4.80
2022-12-18T19:19:01.334Z,-4.90
2022-12-18T19:21:28.603Z,-4.90
2022-12-18T19:23:57.957Z,-4.90
2022-12-18T19:26:27.954Z,-4.90
2022-12-18T19:29:00.115Z,-5.00
2022-12-18T19:31:31.771Z,-5.00
2022-12-18T19:34:01.774Z,-5.00
2022-12-18T19:36:29.224Z,-5.00
2022-12-18T19:38:57.182Z,-5.00
2022-12-18T19:41:25.633Z,-4.90
2022-12-18T19:43:54.232Z,-4.90
2022-12-18T19:46:21.817Z,-4.90
2022-12-18T19:48:48.793Z,-4.90
2022-12-18T19:51:16.737Z,-4.80
2022-12-18T19:53:43.504Z,-4.80
2022-12-18T19:56:11.725Z,-4.80
2022-12-18T19:58:38.552Z,-4.70
2022-12-18T20:01:06.321Z,-4.60
2022-12-18T20:03:34.872Z,-4.60
2022-12-18T20:06:08.592Z,-4.60
2022-12-18T20:08:35.219Z,-4.60
2022-12-18T20:11:01.878Z,-4.60
2022-12-18T20:13:28.621Z,-4.60
2022-12-18T20:15:55.328Z,-4.60
2022-12-18T20:18:21.986Z,-4.60
2022-12-18T20:20:50.175Z,-4.60
2022-12-18T20:23:18.348Z,-4.60
2022-12-18T20:25:45.307Z,-4.70
2022-12-18T20:28:12.355Z,-4.70
2022-12-18T20:30:39.078Z,-4.70
2022-12-18T20:33:05.785Z,-4.70
2022-12-18T20:35:33.132Z,-4.70
2022-12-18T20:38:00.244Z,-4.70
2022-12-18T20:40:27.805Z,-4.60
2022-12-18T20:42:54.474Z,-4.60
2022-12-18T20:45:21.186Z,-4.60
2022-12-18T20:47:47.959Z,-4.50
2022-12-18T20:50:14.605Z,-4.50
2022-12-18T20:52:41.273Z,-4.50
2022-12-18T20:55:08.194Z,-4.40
2022-12-18T20:57:34.945Z,-4.30
2022-12-18T21:00:03.558Z,-4.30
2022-12-18T21:02:30.285Z,-4.30
2022-12-18T21:04:57.192Z,-4.20
2022-12-18T21:07:23.865Z,-4.20
2022-12-18T21:09:50.569Z,-4.10
2022-12-18T21:12:44.916Z,-4.10
2022-12-18T21:15:28.541Z,-4.10
2022-12-18T21:17:55.605Z,-4.00
2022-12-18T21:20:22.597Z,-4.00
2022-12-18T21:22:49.633Z,-4.00
2022-12-18T21:25:16.467Z,-4.00
2022-12-18T21:27:43.196Z,-3.90
2022-12-18T21:30:10.395Z,-3.90
2022-12-18T21:32:37.080Z,-3.90
2022-12-18T21:35:03.933Z,-3.90
2022-12-18T21:37:30.734Z,-3.90
2022-12-18T21:39:57.424Z,-3.90
2022-12-18T21:42:42.816Z,-3.80
2022-12-18T21:45:09.656Z,-3.90
2022-12-18T21:47:36.315Z,-3.90
2022-12-18T21:50:03.151Z,-4.00
2022-12-18T21:52:32.008Z,-4.00
2022-12-18T21:55:07.889Z,-4.00
2022-12-18T21:57:35.673Z,-4.00
2022-12-18T22:00:03.125Z,-3.90
2022-12-18T22:02:38.769Z,-3.90
2022-12-18T22:05:05.706Z,-3.80
2022-12-18T22:07:32.413Z,-3.80
2022-12-18T22:09:59.135Z,-3.70
2022-12-18T22:12:43.719Z,-3.60
2022-12-18T22:15:12.413Z,-3.60
2022-12-18T22:17:41.470Z,-3.50
2022-12-18T22:20:09.282Z,-3.50
2022-12-18T22:22:36.021Z,-3.40
2022-12-18T22:25:02.921Z,-3.40
2022-12-18T22:27:29.630Z,-3.40
2022-12-18T22:30:05.518Z,-3.40
2022-12-18T22:32:33.168Z,-3.30
2022-12-18T22:35:05.237Z,-3.30
2022-12-18T22:37:33.933Z,-3.30
2022-12-18T22:40:03.113Z,-3.30
2022-12-18T22:42:31.147Z,-3.30
2022-12-18T22:44:57.910Z,-3.30
2022-12-18T22:47:29.484Z,-3.40
2022-12-18T22:49:57.166Z,-3.40
2022-12-18T22:52:24.884Z,-3.30
2022-12-18T22:54:53.760Z,-3.30
2022-12-18T22:57:24.004Z,-3.30
2022-12-18T22:59:51.201Z,-3.30
2022-12-18T23:02:19.055Z,-3.30
2022-12-18T23:04:45.991Z,-3.30
2022-12-18T23:07:12.760Z,-3.20
2022-12-18T23:09:39.742Z,-3.20
2022-12-18T23:12:06.612Z,-3.20
2022-12-18T23:14:33.473Z,-3.20
2022-12-18T23:17:00.121Z,-3.20
2022-12-18T23:19:27.096Z,-3.20
2022-12-18T23:21:57.738Z,-3.20
2022-12-18T23:24:25.414Z,-3.20
2022-12-18T23:26:52.193Z,-3.20
2022-12-18T23:29:18.895Z,-3.20
2022-12-18T23:31:45.766Z,-3.30
2022-12-18T23:34:13.009Z,-3.30
2022-12-18T23:36:46.570Z,-3.20
2022-12-18T23:39:25.814Z,-3.20
2022-12-18T23:41:56.301Z,-3.20
2022-12-18T23:44:23.070Z,-3.10
2022-12-18T23:46:49.808Z,-3.10
2022-12-18T23:49:16.523Z,-3.00
2022-12-18T23:51:43.500Z,-3.00
2022-12-18T23:54:10.593Z,-3.00
2022-12-18T23:56:37.334Z,-2.90
2022-12-18T23:59:04.041Z,-2.90
